Sant Boi de Llobregat, Spain
Current Conditions -  °F | °C
As of 1:00 AM on Saturday 29 Nov 2014 (Local Time) from LEBL Reporting Station
Few Clouds Few Clouds  
Wind Chill: 64°   Ceiling: Unl
Heat Index: 64°   Visibility: 5mi
Dew Point: 63°   Wind: 18mph
Humidity: 94%   Direction: 80°E
Pressure: 29.47"   Gusts: NA
Location:  41.34°N, 2.04°E
Report Text: LEBL 290000Z 08016KT 8000 FEW020 18/17 Q0998 NOSIG
Loading
Personal Weather Stations






























Interactive Weather Map New forecast layout! Learn more

10-Day Weather Forecast

Advertisements
Track Severe Weather on mobile